createdAt,value
2017-06-04T00:00:20.024Z,1006.36
2017-06-04T00:01:20.060Z,1006.39
2017-06-04T00:02:20.094Z,1006.31
2017-06-04T00:03:20.123Z,1006.34
2017-06-04T00:04:20.180Z,1006.36
2017-06-04T00:05:20.208Z,1006.37
2017-06-04T00:06:20.240Z,1006.3
2017-06-04T00:07:20.277Z,1006.31
2017-06-04T00:08:20.315Z,1006.32
2017-06-04T00:09:20.348Z,1006.21
2017-06-04T00:10:20.388Z,1006.2
2017-06-04T00:11:20.427Z,1006.15
2017-06-04T00:12:20.459Z,1006.13
2017-06-04T00:13:20.480Z,1006.09
2017-06-04T00:14:20.530Z,1006.1
2017-06-04T00:15:20.569Z,1006.08
2017-06-04T00:16:20.609Z,1006.07
2017-06-04T00:17:20.641Z,1006.01
2017-06-04T00:18:20.678Z,1006.03
2017-06-04T00:19:20.713Z,1005.97
2017-06-04T00:20:20.748Z,1006.01
2017-06-04T00:21:20.789Z,1005.95
2017-06-04T00:22:20.824Z,1005.94
2017-06-04T00:23:20.860Z,1005.94
2017-06-04T00:24:20.897Z,1005.95
2017-06-04T00:25:20.929Z,1005.92
2017-06-04T00:26:20.970Z,1005.94
2017-06-04T00:27:21.002Z,1005.9
2017-06-04T00:28:21.039Z,1005.93
2017-06-04T00:29:21.078Z,1005.91
2017-06-04T00:30:21.116Z,1005.92
2017-06-04T00:31:21.149Z,1005.89
2017-06-04T00:32:21.188Z,1005.92
2017-06-04T00:33:21.224Z,1005.97
2017-06-04T00:34:21.259Z,1005.97
2017-06-04T00:35:21.293Z,1005.98
2017-06-04T00:36:21.329Z,1005.96
2017-06-04T00:37:21.365Z,1005.98
2017-06-04T00:38:21.403Z,1006.01
2017-06-04T00:39:21.438Z,1005.97
2017-06-04T00:40:21.475Z,1006
2017-06-04T00:41:21.512Z,1006.05
2017-06-04T00:42:21.544Z,1006.06
2017-06-04T00:43:21.582Z,1006.03
2017-06-04T00:44:21.620Z,1006.08
2017-06-04T00:45:21.652Z,1006.06
2017-06-04T00:46:21.691Z,1006.06
2017-06-04T00:47:21.731Z,1006.05
2017-06-04T00:48:21.759Z,1005.99
2017-06-04T00:49:21.802Z,1005.98
2017-06-04T00:50:21.837Z,1005.95
2017-06-04T00:51:21.871Z,1005.96
2017-06-04T00:52:21.904Z,1005.97
2017-06-04T00:53:21.945Z,1005.99
2017-06-04T00:54:21.981Z,1005.96
2017-06-04T00:55:22.015Z,1005.89
2017-06-04T00:56:22.055Z,1005.9
2017-06-04T00:57:22.093Z,1005.88
2017-06-04T00:58:22.125Z,1005.84
2017-06-04T00:59:22.159Z,1005.89
2017-06-04T01:00:22.202Z,1005.83
2017-06-04T01:01:22.235Z,1005.86
2017-06-04T01:02:22.272Z,1005.81
2017-06-04T01:03:22.303Z,1005.79
2017-06-04T01:04:22.340Z,1005.79
2017-06-04T01:05:22.377Z,1005.84
2017-06-04T01:06:22.412Z,1005.77
2017-06-04T01:07:22.432Z,1005.74
2017-06-04T01:08:22.486Z,1005.73
2017-06-04T01:09:22.522Z,1005.72
2017-06-04T01:10:22.558Z,1005.73
2017-06-04T01:11:22.596Z,1005.72
2017-06-04T01:12:22.614Z,1005.66
2017-06-04T01:13:22.665Z,1005.67
2017-06-04T01:14:22.702Z,1005.68
2017-06-04T01:15:22.738Z,1005.71
2017-06-04T01:16:22.772Z,1005.69
2017-06-04T01:17:22.807Z,1005.7
2017-06-04T01:18:22.844Z,1005.7
2017-06-04T01:19:22.882Z,1005.69
2017-06-04T01:20:22.913Z,1005.68
2017-06-04T01:21:22.955Z,1005.72
2017-06-04T01:22:22.972Z,1005.7
2017-06-04T01:23:23.023Z,1005.71
2017-06-04T01:24:23.061Z,1005.68
2017-06-04T01:25:23.100Z,1005.69
2017-06-04T01:26:23.130Z,1005.69
2017-06-04T01:27:23.167Z,1005.68
2017-06-04T01:28:23.205Z,1005.64
2017-06-04T01:29:23.222Z,1005.65
2017-06-04T01:30:23.274Z,1005.62
2017-06-04T01:31:23.308Z,1005.63
2017-06-04T01:32:23.332Z,1005.6
2017-06-04T01:33:23.381Z,1005.6
2017-06-04T01:34:23.401Z,1005.6
2017-06-04T01:35:23.592Z,1005.63
2017-06-04T01:36:23.490Z,1005.6
2017-06-04T01:37:23.525Z,1005.66
2017-06-04T01:38:23.561Z,1005.56
2017-06-04T01:39:23.582Z,1005.62
2017-06-04T01:40:23.636Z,1005.58
2017-06-04T01:41:23.669Z,1005.59
2017-06-04T01:42:23.709Z,1005.55
2017-06-04T01:43:23.738Z,1005.57
2017-06-04T01:44:23.776Z,1005.56
2017-06-04T01:45:23.811Z,1005.57
2017-06-04T01:46:23.851Z,1005.5
2017-06-04T01:47:23.883Z,1005.48
2017-06-04T01:48:23.917Z,1005.45
2017-06-04T01:49:23.942Z,1005.45
2017-06-04T01:50:23.992Z,1005.47
2017-06-04T01:51:24.029Z,1005.46
2017-06-04T01:52:24.063Z,1005.46
2017-06-04T01:53:24.102Z,1005.42
2017-06-04T01:54:24.135Z,1005.37
2017-06-04T01:55:24.172Z,1005.38
2017-06-04T01:56:24.212Z,1005.32
2017-06-04T01:57:24.246Z,1005.32
2017-06-04T01:58:24.279Z,1005.29
2017-06-04T01:59:24.312Z,1005.22
2017-06-04T02:00:24.356Z,1005.23
2017-06-04T02:01:24.372Z,1005.21
2017-06-04T02:02:24.424Z,1005.16
2017-06-04T02:03:24.461Z,1005.21
2017-06-04T02:04:24.496Z,1005.19
2017-06-04T02:05:24.532Z,1005.18
2017-06-04T02:06:24.548Z,1005.22
2017-06-04T02:07:24.605Z,1005.24
2017-06-04T02:08:24.638Z,1005.24
2017-06-04T02:09:24.670Z,1005.25
2017-06-04T02:10:24.710Z,1005.29
2017-06-04T02:11:24.748Z,1005.32
2017-06-04T02:12:24.782Z,1005.34
2017-06-04T02:13:24.818Z,1005.29
2017-06-04T02:14:24.857Z,1005.33
2017-06-04T02:15:24.889Z,1005.3
2017-06-04T02:16:24.925Z,1005.33
2017-06-04T02:17:24.967Z,1005.32
2017-06-04T02:18:24.995Z,1005.27
2017-06-04T02:19:25.037Z,1005.26
2017-06-04T02:20:25.065Z,1005.27
2017-06-04T02:21:25.107Z,1005.26
2017-06-04T02:22:25.141Z,1005.24
2017-06-04T02:23:25.163Z,1005.21
2017-06-04T02:24:25.204Z,1005.19
2017-06-04T02:25:25.249Z,1005.15
2017-06-04T02:26:25.283Z,1005.16
2017-06-04T02:27:25.320Z,1005.14
2017-06-04T02:28:25.362Z,1005.15
2017-06-04T02:29:25.390Z,1005.17
2017-06-04T02:30:25.430Z,1005.2
2017-06-04T02:31:25.465Z,1005.15
2017-06-04T02:32:25.502Z,1005.14
2017-06-04T02:33:25.538Z,1005.23
2017-06-04T02:34:25.572Z,1005.17
2017-06-04T02:35:25.608Z,1005.2
2017-06-04T02:36:25.641Z,1005.14
2017-06-04T02:37:25.680Z,1005.09
2017-06-04T02:38:25.713Z,1005.12
2017-06-04T02:39:25.760Z,1005.08
2017-06-04T02:40:25.790Z,1005.05
2017-06-04T02:41:25.825Z,1005.04
2017-06-04T02:42:25.860Z,1005.09
2017-06-04T02:43:25.895Z,1005.08
2017-06-04T02:44:25.932Z,1005.12
2017-06-04T02:45:25.965Z,1005.13
2017-06-04T02:46:26.000Z,1005.14
2017-06-04T02:47:26.037Z,1005.14
2017-06-04T02:48:26.061Z,1005.17
2017-06-04T02:49:26.111Z,1005.18
2017-06-04T02:50:26.146Z,1005.15
2017-06-04T02:51:26.181Z,1005.19
2017-06-04T02:52:26.214Z,1005.22
2017-06-04T02:53:26.251Z,1005.2
2017-06-04T02:54:26.289Z,1005.26
2017-06-04T02:55:26.325Z,1005.22
2017-06-04T02:56:26.358Z,1005.26
2017-06-04T02:57:26.393Z,1005.25
2017-06-04T02:58:26.432Z,1005.33
2017-06-04T02:59:26.464Z,1005.28
2017-06-04T03:00:26.498Z,1005.3
2017-06-04T03:01:26.536Z,1005.3
2017-06-04T03:02:26.563Z,1005.29
2017-06-04T03:03:26.609Z,1005.2
2017-06-04T03:04:26.648Z,1005.14
2017-06-04T03:05:26.693Z,1005.17
2017-06-04T03:06:26.715Z,1005.14
2017-06-04T03:07:26.750Z,1005.15
2017-06-04T03:08:26.785Z,1005.12
2017-06-04T03:09:26.822Z,1005.13
2017-06-04T03:10:26.862Z,1005.21
2017-06-04T03:11:26.896Z,1005.15
2017-06-04T03:12:26.933Z,1005.23
2017-06-04T03:13:26.965Z,1005.21
2017-06-04T03:14:26.998Z,1005.22
2017-06-04T03:15:27.035Z,1005.19
2017-06-04T03:16:27.055Z,1005.2
2017-06-04T03:17:27.110Z,1005.2
2017-06-04T03:18:27.147Z,1005.2
2017-06-04T03:19:27.180Z,1005.23
2017-06-04T03:20:27.218Z,1005.24
2017-06-04T03:21:27.251Z,1005.25
2017-06-04T03:22:27.283Z,1005.23
2017-06-04T03:23:27.321Z,1005.23
2017-06-04T03:24:27.357Z,1005.19
2017-06-04T03:25:27.392Z,1005.16
2017-06-04T03:26:27.431Z,1005.19
2017-06-04T03:27:27.467Z,1005.18
2017-06-04T03:28:27.499Z,1005.13
2017-06-04T03:29:27.534Z,1005.1
2017-06-04T03:30:27.566Z,1005.02
2017-06-04T03:31:27.609Z,1005
2017-06-04T03:32:27.641Z,1005.02
2017-06-04T03:33:27.674Z,1004.96
2017-06-04T03:34:27.714Z,1005
2017-06-04T03:35:27.752Z,1005.02
2017-06-04T03:36:27.783Z,1005.01
2017-06-04T03:37:27.822Z,1005.02
2017-06-04T03:38:27.859Z,1005.02
2017-06-04T03:39:27.894Z,1005.03
2017-06-04T03:40:27.960Z,1004.99
2017-06-04T03:41:27.948Z,1004.93
2017-06-04T03:42:27.999Z,1004.95
2017-06-04T03:43:28.021Z,1004.9
2017-06-04T03:44:28.066Z,1004.92
2017-06-04T03:45:28.094Z,1004.9
2017-06-04T03:46:28.138Z,1004.88
2017-06-04T03:47:28.179Z,1004.86
2017-06-04T03:48:28.212Z,1004.84
2017-06-04T03:49:28.250Z,1004.86
2017-06-04T03:50:28.286Z,1004.8
2017-06-04T03:51:28.320Z,1004.72
2017-06-04T03:52:28.359Z,1004.75
2017-06-04T03:53:28.389Z,1004.75
2017-06-04T03:54:28.426Z,1004.72
2017-06-04T03:55:28.461Z,1004.7
2017-06-04T03:56:28.498Z,1004.7
2017-06-04T03:57:28.534Z,1004.71
2017-06-04T03:58:28.568Z,1004.71
2017-06-04T03:59:28.607Z,1004.72
2017-06-04T04:00:28.638Z,1004.72
2017-06-04T04:01:28.660Z,1004.7
2017-06-04T04:02:28.710Z,1004.69
2017-06-04T04:03:28.751Z,1004.69
2017-06-04T04:04:28.771Z,1004.72
2017-06-04T04:05:28.963Z,1004.7
2017-06-04T04:06:28.859Z,1004.72
2017-06-04T04:07:28.889Z,1004.75
2017-06-04T04:08:28.928Z,1004.73
2017-06-04T04:09:28.963Z,1004.76
2017-06-04T04:10:29.000Z,1004.69
2017-06-04T04:11:29.035Z,1004.65
2017-06-04T04:12:29.066Z,1004.63
2017-06-04T04:13:29.104Z,1004.61
2017-06-04T04:14:29.138Z,1004.58
2017-06-04T04:15:29.156Z,1004.59
2017-06-04T04:16:29.210Z,1004.65
2017-06-04T04:17:29.253Z,1004.63
2017-06-04T04:18:29.278Z,1004.64
2017-06-04T04:19:29.321Z,1004.63
2017-06-04T04:20:29.357Z,1004.67
2017-06-04T04:21:29.389Z,1004.61
2017-06-04T04:22:29.430Z,1004.58
2017-06-04T04:23:29.461Z,1004.58
2017-06-04T04:24:29.500Z,1004.55
2017-06-04T04:25:29.531Z,1004.53
2017-06-04T04:26:29.567Z,1004.48
2017-06-04T04:27:29.609Z,1004.53
2017-06-04T04:28:29.640Z,1004.52
2017-06-04T04:29:29.681Z,1004.53
2017-06-04T04:30:29.713Z,1004.55
2017-06-04T04:31:29.752Z,1004.57
2017-06-04T04:32:29.786Z,1004.62
2017-06-04T04:33:29.822Z,1004.56
2017-06-04T04:34:29.861Z,1004.61
2017-06-04T04:35:29.892Z,1004.64
2017-06-04T04:36:29.928Z,1004.65
2017-06-04T04:37:29.952Z,1004.6
2017-06-04T04:38:30.000Z,1004.62
2017-06-04T04:39:30.038Z,1004.65
2017-06-04T04:40:30.073Z,1004.67
2017-06-04T04:41:30.110Z,1004.67
2017-06-04T04:42:30.131Z,1004.61
2017-06-04T04:43:30.175Z,1004.65
2017-06-04T04:44:30.201Z,1004.63
2017-06-04T04:45:30.257Z,1004.6
2017-06-04T04:46:30.269Z,1004.63
2017-06-04T04:47:30.325Z,1004.65
2017-06-04T04:48:30.366Z,1004.64
2017-06-04T04:49:30.396Z,1004.65
2017-06-04T04:50:30.430Z,1004.69
2017-06-04T04:51:30.456Z,1004.67
2017-06-04T04:52:30.503Z,1004.71
2017-06-04T04:53:30.541Z,1004.66
2017-06-04T04:54:30.573Z,1004.72
2017-06-04T04:55:30.612Z,1004.73
2017-06-04T04:56:30.650Z,1004.72
2017-06-04T04:57:30.681Z,1004.72
2017-06-04T04:58:30.719Z,1004.7
2017-06-04T04:59:30.756Z,1004.7
2017-06-04T05:00:30.791Z,1004.69
2017-06-04T05:01:30.828Z,1004.7
2017-06-04T05:02:30.866Z,1004.72
2017-06-04T05:03:30.898Z,1004.67
2017-06-04T05:04:30.934Z,1004.68
2017-06-04T05:05:30.971Z,1004.71
2017-06-04T05:06:31.013Z,1004.72
2017-06-04T05:07:31.040Z,1004.63
2017-06-04T05:08:31.069Z,1004.67
2017-06-04T05:09:31.115Z,1004.72
2017-06-04T05:10:31.154Z,1004.74
2017-06-04T05:11:31.170Z,1004.78
2017-06-04T05:12:31.223Z,1004.77
2017-06-04T05:13:31.260Z,1004.77
2017-06-04T05:14:31.325Z,1004.78
2017-06-04T05:15:31.330Z,1004.77
2017-06-04T05:16:31.370Z,1004.82
2017-06-04T05:17:31.402Z,1004.78
2017-06-04T05:18:31.441Z,1004.85
2017-06-04T05:19:31.477Z,1004.84
2017-06-04T05:20:31.504Z,1004.87
2017-06-04T05:21:31.550Z,1004.87
2017-06-04T05:22:31.587Z,1004.85
2017-06-04T05:23:31.630Z,1004.86
2017-06-04T05:24:31.659Z,1004.94
2017-06-04T05:25:31.694Z,1004.98
2017-06-04T05:26:31.729Z,1004.98
2017-06-04T05:27:31.765Z,1004.98
2017-06-04T05:28:31.798Z,1005
2017-06-04T05:29:31.838Z,1005.03
2017-06-04T05:30:31.874Z,1005.01
2017-06-04T05:31:31.913Z,1005.05
2017-06-04T05:32:31.946Z,1005
2017-06-04T05:33:31.984Z,1005
2017-06-04T05:34:32.017Z,1005.01
2017-06-04T05:35:32.054Z,1005.02
2017-06-04T05:36:32.090Z,1004.97
2017-06-04T05:37:32.125Z,1004.95
2017-06-04T05:38:32.166Z,1004.97
2017-06-04T05:39:32.200Z,1004.95
2017-06-04T05:40:32.238Z,1004.96
2017-06-04T05:41:32.277Z,1004.99
2017-06-04T05:42:32.289Z,1005
2017-06-04T05:43:32.346Z,1005.04
2017-06-04T05:44:32.411Z,1005
2017-06-04T05:45:32.402Z,1005
2017-06-04T05:46:32.435Z,1005.04
2017-06-04T05:47:32.492Z,1004.98
2017-06-04T05:48:32.528Z,1005.04
2017-06-04T05:49:32.564Z,1005.02
2017-06-04T05:50:32.599Z,1005.03
2017-06-04T05:51:32.632Z,1005.07
2017-06-04T05:52:32.674Z,1005.08
2017-06-04T05:53:32.705Z,1005.04
2017-06-04T05:54:32.745Z,1005.05
2017-06-04T05:55:32.781Z,1005.09
2017-06-04T05:56:32.821Z,1005.08
2017-06-04T05:57:32.854Z,1005.04
2017-06-04T05:58:32.890Z,1005.04
2017-06-04T05:59:32.924Z,1005.02
2017-06-04T06:00:32.963Z,1005.05
2017-06-04T06:01:33.003Z,1005.08
2017-06-04T06:02:33.036Z,1005.04
2017-06-04T06:03:33.071Z,1005.03
2017-06-04T06:04:33.108Z,1005.01
2017-06-04T06:05:33.141Z,1005.02
2017-06-04T06:06:33.179Z,1005.01
2017-06-04T06:07:33.215Z,1004.99
2017-06-04T06:08:33.253Z,1004.92
2017-06-04T06:09:33.287Z,1004.86
2017-06-04T06:10:33.320Z,1004.9
2017-06-04T06:11:33.359Z,1004.89
2017-06-04T06:12:33.413Z,1004.9
2017-06-04T06:13:33.433Z,1004.87
2017-06-04T06:14:33.468Z,1004.87
2017-06-04T06:15:33.508Z,1004.88
2017-06-04T06:16:33.542Z,1004.84
2017-06-04T06:17:33.573Z,1004.82
2017-06-04T06:18:33.599Z,1004.84
2017-06-04T06:19:33.649Z,1004.85
2017-06-04T06:20:33.686Z,1004.85
2017-06-04T06:21:33.715Z,1004.86
2017-06-04T06:22:33.755Z,1004.87
2017-06-04T06:23:33.798Z,1004.9
2017-06-04T06:24:33.811Z,1004.88
2017-06-04T06:25:33.867Z,1004.88
2017-06-04T06:26:33.907Z,1004.9
2017-06-04T06:27:33.944Z,1004.88
2017-06-04T06:28:33.974Z,1004.85
2017-06-04T06:29:34.009Z,1004.81
2017-06-04T06:30:34.050Z,1004.85
2017-06-04T06:31:34.069Z,1004.84
2017-06-04T06:32:34.119Z,1004.83
2017-06-04T06:33:34.159Z,1004.84
2017-06-04T06:34:34.198Z,1004.8
2017-06-04T06:35:34.234Z,1004.8
2017-06-04T06:36:34.265Z,1004.85
2017-06-04T06:37:34.308Z,1004.86
2017-06-04T06:38:34.341Z,1004.81
2017-06-04T06:39:34.379Z,1004.9
2017-06-04T06:40:34.416Z,1004.88
2017-06-04T06:41:34.457Z,1004.88
2017-06-04T06:42:34.487Z,1004.84
2017-06-04T06:43:34.512Z,1004.84
2017-06-04T06:44:34.561Z,1004.85
2017-06-04T06:45:34.581Z,1004.88
2017-06-04T06:46:34.629Z,1004.85
2017-06-04T06:47:34.669Z,1004.85
2017-06-04T06:48:34.706Z,1004.87
2017-06-04T06:49:34.740Z,1004.84
2017-06-04T06:50:34.774Z,1004.85
2017-06-04T06:51:34.816Z,1004.86
2017-06-04T06:52:34.849Z,1004.84
2017-06-04T06:53:34.875Z,1004.86
2017-06-04T06:54:34.919Z,1004.88
2017-06-04T06:55:34.958Z,1004.86
2017-06-04T06:56:34.995Z,1004.86
2017-06-04T06:57:35.033Z,1004.86
2017-06-04T06:58:35.069Z,1004.89
2017-06-04T06:59:35.103Z,1004.86
2017-06-04T07:00:35.139Z,1004.87
2017-06-04T07:01:35.175Z,1004.83
2017-06-04T07:02:35.211Z,1004.82
2017-06-04T07:03:35.250Z,1004.84
2017-06-04T07:04:35.289Z,1004.81
2017-06-04T07:05:35.321Z,1004.8
2017-06-04T07:06:35.341Z,1004.83
2017-06-04T07:07:35.396Z,1004.84
2017-06-04T07:08:35.417Z,1004.84
2017-06-04T07:09:35.467Z,1004.88
2017-06-04T07:10:35.501Z,1004.8
2017-06-04T07:11:35.539Z,1004.78
2017-06-04T07:12:35.573Z,1004.76
2017-06-04T07:13:35.611Z,1004.78
2017-06-04T07:14:35.647Z,1004.8
2017-06-04T07:15:35.687Z,1004.78
2017-06-04T07:16:35.719Z,1004.75
2017-06-04T07:17:35.756Z,1004.79
2017-06-04T07:18:35.797Z,1004.79
2017-06-04T07:19:35.859Z,1004.8
2017-06-04T07:20:35.867Z,1004.79
2017-06-04T07:21:35.904Z,1004.84
2017-06-04T07:22:35.941Z,1004.77
2017-06-04T07:23:35.980Z,1004.77
2017-06-04T07:24:36.028Z,1004.82
2017-06-04T07:25:36.063Z,1004.82
2017-06-04T07:26:36.087Z,1004.8
2017-06-04T07:27:36.128Z,1004.83
2017-06-04T07:28:36.170Z,1004.81
2017-06-04T07:29:36.196Z,1004.85
2017-06-04T07:30:36.225Z,1004.83
2017-06-04T07:31:36.251Z,1004.86
2017-06-04T07:32:36.306Z,1004.86
2017-06-04T07:33:36.339Z,1004.88
2017-06-04T07:34:36.375Z,1004.93
2017-06-04T07:35:36.416Z,1004.93
2017-06-04T07:36:36.448Z,1004.96
2017-06-04T07:37:36.478Z,1004.96
2017-06-04T07:38:36.522Z,1004.97
2017-06-04T07:39:36.556Z,1004.95
2017-06-04T07:40:36.592Z,1004.82
2017-06-04T07:41:36.625Z,1004.8
2017-06-04T07:42:36.663Z,1004.81
2017-06-04T07:43:36.702Z,1004.85
2017-06-04T07:44:36.720Z,1004.81
2017-06-04T07:45:36.769Z,1004.75
2017-06-04T07:46:36.835Z,1004.74
2017-06-04T07:47:36.844Z,1004.69
2017-06-04T07:48:36.880Z,1004.71
2017-06-04T07:49:36.918Z,1004.66
2017-06-04T07:50:36.954Z,1004.66
2017-06-04T07:51:36.988Z,1004.66
2017-06-04T07:52:37.020Z,1004.71
2017-06-04T07:53:37.058Z,1004.68
2017-06-04T07:54:37.078Z,1004.72
2017-06-04T07:55:37.134Z,1004.67
2017-06-04T07:56:37.167Z,1004.7
2017-06-04T07:57:37.207Z,1004.7
2017-06-04T07:58:37.240Z,1004.7
2017-06-04T07:59:37.258Z,1004.7
2017-06-04T08:00:37.312Z,1004.74
2017-06-04T08:01:37.357Z,1004.71
2017-06-04T08:02:37.386Z,1004.67
2017-06-04T08:03:37.421Z,1004.69
2017-06-04T08:04:37.459Z,1004.67
2017-06-04T08:05:37.498Z,1004.65
2017-06-04T08:06:37.534Z,1004.65
2017-06-04T08:07:37.568Z,1004.67
2017-06-04T08:08:37.601Z,1004.68
2017-06-04T08:09:37.624Z,1004.69
2017-06-04T08:10:37.677Z,1004.63
2017-06-04T08:11:37.717Z,1004.64
2017-06-04T08:12:37.747Z,1004.69
2017-06-04T08:13:37.783Z,1004.63
2017-06-04T08:14:37.821Z,1004.62
2017-06-04T08:15:37.841Z,1004.63
2017-06-04T08:16:37.891Z,1004.61
2017-06-04T08:17:37.932Z,1004.59
2017-06-04T08:18:37.966Z,1004.62
2017-06-04T08:19:38.002Z,1004.61
2017-06-04T08:20:38.038Z,1004.64
2017-06-04T08:21:38.076Z,1004.66
2017-06-04T08:22:38.110Z,1004.63
2017-06-04T08:23:38.147Z,1004.61
2017-06-04T08:24:38.185Z,1004.57
2017-06-04T08:25:38.221Z,1004.57
2017-06-04T08:26:38.239Z,1004.56
2017-06-04T08:27:38.290Z,1004.56
2017-06-04T08:28:38.334Z,1004.56
2017-06-04T08:29:38.386Z,1004.53
2017-06-04T08:30:38.400Z,1004.52
2017-06-04T08:31:38.438Z,1004.58
2017-06-04T08:32:38.473Z,1004.54
2017-06-04T08:33:38.511Z,1004.55
2017-06-04T08:34:38.548Z,1004.58
2017-06-04T08:35:38.583Z,1004.54
2017-06-04T08:36:38.622Z,1004.58
2017-06-04T08:37:38.653Z,1004.64
2017-06-04T08:38:38.688Z,1004.59
2017-06-04T08:39:38.726Z,1004.58
2017-06-04T08:40:38.750Z,1004.62
2017-06-04T08:41:38.800Z,1004.64
2017-06-04T08:42:38.841Z,1004.59
2017-06-04T08:43:38.872Z,1004.6
2017-06-04T08:44:38.907Z,1004.55
2017-06-04T08:45:38.971Z,1004.54
2017-06-04T08:46:38.981Z,1004.49
2017-06-04T08:47:39.018Z,1004.48
2017-06-04T08:48:39.052Z,1004.45
2017-06-04T08:49:39.091Z,1004.4
2017-06-04T08:50:39.121Z,1004.5
2017-06-04T08:51:39.162Z,1004.56
2017-06-04T08:52:39.196Z,1004.64
2017-06-04T08:53:39.234Z,1004.69
2017-06-04T08:54:39.270Z,1004.67
2017-06-04T08:55:39.305Z,1004.65
2017-06-04T08:56:39.346Z,1004.68
2017-06-04T08:57:39.379Z,1004.7
2017-06-04T08:58:39.410Z,1004.74
2017-06-04T08:59:39.451Z,1004.71
2017-06-04T09:00:39.486Z,1004.74
2017-06-04T09:01:39.508Z,1004.77
2017-06-04T09:02:39.538Z,1004.76
2017-06-04T09:03:39.592Z,1004.82
2017-06-04T09:04:39.626Z,1004.82
2017-06-04T09:05:39.651Z,1004.85
2017-06-04T09:06:39.698Z,1004.82
2017-06-04T09:07:39.721Z,1004.83
2017-06-04T09:08:39.772Z,1004.84
2017-06-04T09:09:39.808Z,1004.89
2017-06-04T09:10:39.846Z,1004.9
2017-06-04T09:11:39.882Z,1004.85
2017-06-04T09:12:39.913Z,1004.88
2017-06-04T09:13:39.955Z,1004.88
2017-06-04T09:14:39.968Z,1004.86
2017-06-04T09:15:40.054Z,1004.87
2017-06-04T09:16:40.063Z,1004.92
2017-06-04T09:17:40.090Z,1004.95
2017-06-04T09:18:40.129Z,1004.96
2017-06-04T09:19:40.172Z,1004.97
2017-06-04T09:20:40.200Z,1004.96
2017-06-04T09:21:40.237Z,1005
2017-06-04T09:22:40.275Z,1004.99
2017-06-04T09:23:40.309Z,1004.97
2017-06-04T09:24:40.346Z,1005.03
2017-06-04T09:25:40.369Z,1005.02
2017-06-04T09:26:40.418Z,1005.02
2017-06-04T09:27:40.457Z,1005.09
2017-06-04T09:28:40.491Z,1005.07
2017-06-04T09:29:40.528Z,1005.1
2017-06-04T09:30:40.564Z,1005.09
2017-06-04T09:31:40.599Z,1005.11
2017-06-04T09:32:40.633Z,1005.12
2017-06-04T09:33:40.675Z,1005.14
2017-06-04T09:34:40.709Z,1005.11
2017-06-04T09:35:40.741Z,1005.15
2017-06-04T09:36:40.775Z,1005.13
2017-06-04T09:37:40.814Z,1005.17
2017-06-04T09:38:40.851Z,1005.19
2017-06-04T09:39:40.878Z,1005.2
2017-06-04T09:40:40.924Z,1005.24
2017-06-04T09:41:40.960Z,1005.26
2017-06-04T09:42:40.995Z,1005.26
2017-06-04T09:43:41.036Z,1005.25
2017-06-04T09:44:41.069Z,1005.2
2017-06-04T09:45:41.098Z,1005.2
2017-06-04T09:46:41.138Z,1005.22
2017-06-04T09:47:41.174Z,1005.26
2017-06-04T09:48:41.209Z,1005.22
2017-06-04T09:49:41.244Z,1005.25
2017-06-04T09:50:41.278Z,1005.3
2017-06-04T09:51:41.316Z,1005.3
2017-06-04T09:52:41.350Z,1005.31
2017-06-04T09:53:41.386Z,1005.34
2017-06-04T09:54:41.426Z,1005.35
2017-06-04T09:55:41.467Z,1005.33
2017-06-04T09:56:41.478Z,1005.3
2017-06-04T09:57:41.530Z,1005.29
2017-06-04T09:58:41.567Z,1005.35
2017-06-04T09:59:41.602Z,1005.38
2017-06-04T10:00:41.620Z,1005.41
2017-06-04T10:01:41.676Z,1005.43
2017-06-04T10:02:41.711Z,1005.46
2017-06-04T10:03:41.746Z,1005.5
2017-06-04T10:04:41.769Z,1005.49
2017-06-04T10:05:41.815Z,1005.53
2017-06-04T10:06:41.856Z,1005.47
2017-06-04T10:07:41.873Z,1005.48
2017-06-04T10:08:41.929Z,1005.53
2017-06-04T10:09:41.965Z,1005.54
2017-06-04T10:10:42.001Z,1005.58
2017-06-04T10:11:42.035Z,1005.54
2017-06-04T10:12:42.073Z,1005.62
2017-06-04T10:13:42.091Z,1005.6
2017-06-04T10:14:42.143Z,1005.63
2017-06-04T10:15:42.180Z,1005.62
2017-06-04T10:16:42.219Z,1005.59
2017-06-04T10:17:42.257Z,1005.57
2017-06-04T10:18:42.272Z,1005.59
2017-06-04T10:19:42.328Z,1005.6
2017-06-04T10:20:42.370Z,1005.59
2017-06-04T10:21:42.399Z,1005.64
2017-06-04T10:22:42.434Z,1005.69
2017-06-04T10:23:42.473Z,1005.65
2017-06-04T10:24:42.506Z,1005.66
2017-06-04T10:25:42.543Z,1005.72
2017-06-04T10:26:42.582Z,1005.68
2017-06-04T10:27:42.616Z,1005.74
2017-06-04T10:28:42.653Z,1005.69
2017-06-04T10:29:42.692Z,1005.69
2017-06-04T10:30:42.727Z,1005.71
2017-06-04T10:31:42.762Z,1005.75
2017-06-04T10:32:42.801Z,1005.71
2017-06-04T10:33:42.839Z,1005.75
2017-06-04T10:34:42.878Z,1005.74
2017-06-04T10:35:42.912Z,1005.77
2017-06-04T10:36:42.952Z,1005.79
2017-06-04T10:37:42.983Z,1005.84
2017-06-04T10:38:43.020Z,1005.87
2017-06-04T10:39:43.052Z,1005.92
2017-06-04T10:40:43.096Z,1005.9
2017-06-04T10:41:43.126Z,1005.93
2017-06-04T10:42:43.169Z,1005.96
2017-06-04T10:43:43.207Z,1005.95
2017-06-04T10:44:43.242Z,1005.97
2017-06-04T10:45:43.258Z,1005.96
2017-06-04T10:46:43.300Z,1006
2017-06-04T10:47:43.350Z,1006
2017-06-04T10:48:43.373Z,1006.04
2017-06-04T10:49:43.423Z,1006.05
2017-06-04T10:50:43.466Z,1006.04
2017-06-04T10:51:43.495Z,1006.07
2017-06-04T10:52:43.534Z,1006.04
2017-06-04T10:53:43.576Z,1006.11
2017-06-04T10:54:43.609Z,1006.1
2017-06-04T10:55:43.644Z,1006.08
2017-06-04T10:56:43.678Z,1006.06
2017-06-04T10:57:43.720Z,1006.09
2017-06-04T10:58:43.734Z,1006.04
2017-06-04T10:59:43.788Z,1006.08
2017-06-04T11:00:43.831Z,1006.08
2017-06-04T11:01:43.870Z,1006.03
2017-06-04T11:02:43.904Z,1006.05
2017-06-04T11:03:43.941Z,1006.05
2017-06-04T11:04:43.980Z,1006.05
2017-06-04T11:05:44.013Z,1006.06
2017-06-04T11:06:44.052Z,1006.09
2017-06-04T11:07:44.091Z,1006.06
2017-06-04T11:08:44.125Z,1006.1
2017-06-04T11:09:44.163Z,1006.18
2017-06-04T11:10:44.196Z,1006.16
2017-06-04T11:11:44.237Z,1006.19
2017-06-04T11:12:44.273Z,1006.26
2017-06-04T11:13:44.304Z,1006.28
2017-06-04T11:14:44.344Z,1006.24
2017-06-04T11:15:44.381Z,1006.34
2017-06-04T11:16:44.419Z,1006.38
2017-06-04T11:17:44.454Z,1006.38
2017-06-04T11:18:44.490Z,1006.39
2017-06-04T11:19:44.529Z,1006.39
2017-06-04T11:20:44.564Z,1006.4
2017-06-04T11:21:44.602Z,1006.51
2017-06-04T11:22:44.632Z,1006.5
2017-06-04T11:23:44.675Z,1006.47
2017-06-04T11:24:44.697Z,1006.56
2017-06-04T11:25:44.745Z,1006.54
2017-06-04T11:26:44.784Z,1006.58
2017-06-04T11:27:44.817Z,1006.57
2017-06-04T11:28:44.857Z,1006.56
2017-06-04T11:29:44.887Z,1006.6
2017-06-04T11:30:44.927Z,1006.63
2017-06-04T11:31:44.964Z,1006.67
2017-06-04T11:32:44.999Z,1006.69
2017-06-04T11:33:45.033Z,1006.68
2017-06-04T11:34:45.072Z,1006.64
2017-06-04T11:35:45.105Z,1006.69
2017-06-04T11:36:45.143Z,1006.68
2017-06-04T11:37:45.181Z,1006.72
2017-06-04T11:38:45.217Z,1006.78
2017-06-04T11:39:45.252Z,1006.77
2017-06-04T11:40:45.287Z,1006.79
2017-06-04T11:41:45.328Z,1006.73
2017-06-04T11:42:45.362Z,1006.78
2017-06-04T11:43:45.396Z,1006.8
2017-06-04T11:44:45.439Z,1006.76
2017-06-04T11:45:45.456Z,1006.81
2017-06-04T11:46:45.495Z,1006.81
2017-06-04T11:47:45.542Z,1006.8
2017-06-04T11:48:45.583Z,1006.8
2017-06-04T11:49:45.614Z,1006.82
2017-06-04T11:50:45.651Z,1006.83
2017-06-04T11:51:45.690Z,1006.81
2017-06-04T11:52:45.726Z,1006.87
2017-06-04T11:53:45.751Z,1006.89
2017-06-04T11:54:45.799Z,1006.9
2017-06-04T11:55:45.833Z,1006.89
2017-06-04T11:56:45.874Z,1006.93
2017-06-04T11:57:45.894Z,1006.89
2017-06-04T11:58:45.944Z,1006.9
2017-06-04T11:59:45.985Z,1006.95
2017-06-04T12:00:46.015Z,1006.95
2017-06-04T12:01:46.054Z,1006.96
2017-06-04T12:02:46.093Z,1006.96
2017-06-04T12:03:46.128Z,1007.03
2017-06-04T12:04:46.162Z,1006.98
2017-06-04T12:05:46.201Z,1007.06
2017-06-04T12:06:46.235Z,1007.14
2017-06-04T12:07:46.272Z,1007.04
2017-06-04T12:08:46.305Z,1007.22
2017-06-04T12:09:46.339Z,1007.13